sensor_id;sensor_type;location;lat;lon;timestamp;P1;durP1;ratioP1;P2;durP2;ratioP2
57191;SDS011;43052;52.588;13.396;2023-08-06T00:00:03;12.77;;;11.48;;
57191;SDS011;43052;52.588;13.396;2023-08-06T00:02:49;13.10;;;11.63;;
57191;SDS011;43052;52.588;13.396;2023-08-06T00:05:15;13.30;;;11.98;;
57191;SDS011;43052;52.588;13.396;2023-08-06T00:07:45;14.30;;;12.48;;
57191;SDS011;43052;52.588;13.396;2023-08-06T00:10:11;14.45;;;12.25;;
57191;SDS011;43052;52.588;13.396;2023-08-06T00:12:37;14.85;;;13.00;;
57191;SDS011;43052;52.588;13.396;2023-08-06T00:15:10;13.10;;;11.77;;
57191;SDS011;43052;52.588;13.396;2023-08-06T00:17:36;14.02;;;12.63;;
57191;SDS011;43052;52.588;13.396;2023-08-06T00:20:13;14.10;;;12.60;;
57191;SDS011;43052;52.588;13.396;2023-08-06T00:22:44;13.73;;;12.43;;
57191;SDS011;43052;52.588;13.396;2023-08-06T00:25:09;13.68;;;12.38;;
57191;SDS011;43052;52.588;13.396;2023-08-06T00:27:55;14.13;;;12.90;;
57191;SDS011;43052;52.588;13.396;2023-08-06T00:30:23;14.65;;;13.25;;
57191;SDS011;43052;52.588;13.396;2023-08-06T00:32:49;14.05;;;12.65;;
57191;SDS011;43052;52.588;13.396;2023-08-06T00:35:14;13.82;;;12.43;;
57191;SDS011;43052;52.588;13.396;2023-08-06T00:37:39;14.88;;;13.32;;
57191;SDS011;43052;52.588;13.396;2023-08-06T00:40:08;14.38;;;12.95;;
57191;SDS011;43052;52.588;13.396;2023-08-06T00:42:43;14.23;;;12.93;;
57191;SDS011;43052;52.588;13.396;2023-08-06T00:45:14;13.35;;;11.95;;
57191;SDS011;43052;52.588;13.396;2023-08-06T00:47:44;13.93;;;12.63;;
57191;SDS011;43052;52.588;13.396;2023-08-06T00:50:19;13.85;;;12.55;;
57191;SDS011;43052;52.588;13.396;2023-08-06T00:52:48;14.27;;;12.88;;
57191;SDS011;43052;52.588;13.396;2023-08-06T00:55:22;13.95;;;12.52;;
57191;SDS011;43052;52.588;13.396;2023-08-06T00:57:47;14.25;;;12.82;;
57191;SDS011;43052;52.588;13.396;2023-08-06T01:00:21;14.05;;;12.70;;
57191;SDS011;43052;52.588;13.396;2023-08-06T01:02:48;13.82;;;12.55;;
57191;SDS011;43052;52.588;13.396;2023-08-06T01:05:13;13.27;;;12.05;;
57191;SDS011;43052;52.588;13.396;2023-08-06T01:16:15;13.25;;;12.05;;
57191;SDS011;43052;52.588;13.396;2023-08-06T01:18:48;13.75;;;12.30;;
57191;SDS011;43052;52.588;13.396;2023-08-06T01:21:19;14.82;;;12.88;;
57191;SDS011;43052;52.588;13.396;2023-08-06T01:23:48;13.45;;;12.20;;
57191;SDS011;43052;52.588;13.396;2023-08-06T01:29:42;14.13;;;12.65;;
57191;SDS011;43052;52.588;13.396;2023-08-06T01:32:18;13.93;;;12.63;;
57191;SDS011;43052;52.588;13.396;2023-08-06T01:34:50;13.55;;;12.35;;
57191;SDS011;43052;52.588;13.396;2023-08-06T01:37:21;14.13;;;12.68;;
57191;SDS011;43052;52.588;13.396;2023-08-06T01:39:49;13.80;;;12.40;;
57191;SDS011;43052;52.588;13.396;2023-08-06T01:42:22;13.95;;;12.55;;
57191;SDS011;43052;52.588;13.396;2023-08-06T01:44:53;13.45;;;12.18;;
57191;SDS011;43052;52.588;13.396;2023-08-06T01:47:19;13.57;;;12.27;;
57191;SDS011;43052;52.588;13.396;2023-08-06T01:49:44;13.75;;;12.45;;
57191;SDS011;43052;52.588;13.396;2023-08-06T01:52:10;14.02;;;12.63;;
57191;SDS011;43052;52.588;13.396;2023-08-06T01:54:35;13.43;;;12.13;;
57191;SDS011;43052;52.588;13.396;2023-08-06T01:57:06;13.55;;;12.35;;
57191;SDS011;43052;52.588;13.396;2023-08-06T01:59:31;13.43;;;12.23;;
57191;SDS011;43052;52.588;13.396;2023-08-06T02:01:57;13.82;;;12.52;;
57191;SDS011;43052;52.588;13.396;2023-08-06T02:04:22;12.98;;;11.68;;
57191;SDS011;43052;52.588;13.396;2023-08-06T02:06:50;13.80;;;12.40;;
57191;SDS011;43052;52.588;13.396;2023-08-06T02:09:25;12.65;;;11.52;;
57191;SDS011;43052;52.588;13.396;2023-08-06T02:11:51;14.13;;;12.80;;
57191;SDS011;43052;52.588;13.396;2023-08-06T02:14:19;13.32;;;12.13;;
57191;SDS011;43052;52.588;13.396;2023-08-06T02:16:44;14.05;;;12.65;;
57191;SDS011;43052;52.588;13.396;2023-08-06T02:19:15;14.18;;;12.75;;
57191;SDS011;43052;52.588;13.396;2023-08-06T02:21:40;13.90;;;12.57;;
57191;SDS011;43052;52.588;13.396;2023-08-06T02:24:42;14.25;;;12.88;;
57191;SDS011;43052;52.588;13.396;2023-08-06T02:27:07;14.75;;;13.32;;
57191;SDS011;43052;52.588;13.396;2023-08-06T02:29:36;15.10;;;13.73;;
57191;SDS011;43052;52.588;13.396;2023-08-06T02:32:01;14.32;;;13.00;;
57191;SDS011;43052;52.588;13.396;2023-08-06T02:34:32;14.30;;;12.90;;
57191;SDS011;43052;52.588;13.396;2023-08-06T02:37:04;14.25;;;12.85;;
57191;SDS011;43052;52.588;13.396;2023-08-06T02:39:29;15.27;;;13.73;;
57191;SDS011;43052;52.588;13.396;2023-08-06T02:42:03;14.95;;;13.45;;
57191;SDS011;43052;52.588;13.396;2023-08-06T02:44:39;15.57;;;14.07;;
57191;SDS011;43052;52.588;13.396;2023-08-06T02:47:34;16.10;;;14.50;;
57191;SDS011;43052;52.588;13.396;2023-08-06T02:53:09;15.00;;;13.68;;
57191;SDS011;43052;52.588;13.396;2023-08-06T02:55:48;15.00;;;13.60;;
57191;SDS011;43052;52.588;13.396;2023-08-06T02:58:29;16.30;;;14.70;;
57191;SDS011;43052;52.588;13.396;2023-08-06T03:01:11;16.85;;;15.35;;
57191;SDS011;43052;52.588;13.396;2023-08-06T03:03:42;15.40;;;13.80;;
57191;SDS011;43052;52.588;13.396;2023-08-06T03:06:11;16.00;;;14.50;;
57191;SDS011;43052;52.588;13.396;2023-08-06T03:08:36;16.13;;;14.68;;
57191;SDS011;43052;52.588;13.396;2023-08-06T03:11:06;15.00;;;13.40;;
57191;SDS011;43052;52.588;13.396;2023-08-06T03:13:34;16.08;;;14.57;;
57191;SDS011;43052;52.588;13.396;2023-08-06T03:16:04;15.10;;;13.70;;
57191;SDS011;43052;52.588;13.396;2023-08-06T03:18:36;15.80;;;14.23;;
57191;SDS011;43052;52.588;13.396;2023-08-06T03:21:07;15.30;;;13.82;;
57191;SDS011;43052;52.588;13.396;2023-08-06T03:23:38;15.23;;;13.73;;
57191;SDS011;43052;52.588;13.396;2023-08-06T03:26:20;15.43;;;13.88;;
57191;SDS011;43052;52.588;13.396;2023-08-06T03:28:57;15.93;;;14.45;;
57191;SDS011;43052;52.588;13.396;2023-08-06T03:31:28;15.38;;;13.88;;
57191;SDS011;43052;52.588;13.396;2023-08-06T03:34:05;14.80;;;13.35;;
57191;SDS011;43052;52.588;13.396;2023-08-06T03:36:33;14.52;;;13.13;;
57191;SDS011;43052;52.588;13.396;2023-08-06T03:39:01;13.98;;;12.68;;
57191;SDS011;43052;52.588;13.396;2023-08-06T03:41:32;14.57;;;12.80;;
57191;SDS011;43052;52.588;13.396;2023-08-06T03:44:00;14.70;;;13.35;;
57191;SDS011;43052;52.588;13.396;2023-08-06T03:46:27;15.23;;;13.73;;
57191;SDS011;43052;52.588;13.396;2023-08-06T03:49:00;14.30;;;12.90;;
57191;SDS011;43052;52.588;13.396;2023-08-06T03:51:37;15.75;;;14.05;;
57191;SDS011;43052;52.588;13.396;2023-08-06T03:54:05;14.73;;;13.35;;
57191;SDS011;43052;52.588;13.396;2023-08-06T03:56:32;15.98;;;14.35;;
57191;SDS011;43052;52.588;13.396;2023-08-06T03:59:04;15.13;;;13.63;;
57191;SDS011;43052;52.588;13.396;2023-08-06T04:01:35;14.80;;;13.40;;
57191;SDS011;43052;52.588;13.396;2023-08-06T04:04:04;15.55;;;14.05;;
57191;SDS011;43052;52.588;13.396;2023-08-06T04:06:31;14.57;;;13.27;;
57191;SDS011;43052;52.588;13.396;2023-08-06T04:09:02;15.23;;;13.73;;
57191;SDS011;43052;52.588;13.396;2023-08-06T04:11:28;15.55;;;13.88;;
57191;SDS011;43052;52.588;13.396;2023-08-06T04:13:56;13.95;;;12.60;;
57191;SDS011;43052;52.588;13.396;2023-08-06T04:16:24;15.68;;;14.23;;
57191;SDS011;43052;52.588;13.396;2023-08-06T04:18:51;14.57;;;13.07;;
57191;SDS011;43052;52.588;13.396;2023-08-06T04:21:23;14.50;;;13.10;;
57191;SDS011;43052;52.588;13.396;2023-08-06T04:23:51;15.50;;;14.00;;
57191;SDS011;43052;52.588;13.396;2023-08-06T04:26:16;15.07;;;13.52;;
57191;SDS011;43052;52.588;13.396;2023-08-06T04:28:49;14.57;;;13.18;;
57191;SDS011;43052;52.588;13.396;2023-08-06T04:31:17;15.52;;;14.07;;
57191;SDS011;43052;52.588;13.396;2023-08-06T04:34:03;14.95;;;13.55;;
57191;SDS011;43052;52.588;13.396;2023-08-06T04:36:33;15.00;;;13.52;;
57191;SDS011;43052;52.588;13.396;2023-08-06T04:39:01;14.00;;;12.60;;
57191;SDS011;43052;52.588;13.396;2023-08-06T04:41:26;15.27;;;13.88;;
57191;SDS011;43052;52.588;13.396;2023-08-06T04:43:54;14.35;;;12.95;;
57191;SDS011;43052;52.588;13.396;2023-08-06T04:46:19;15.70;;;14.18;;
57191;SDS011;43052;52.588;13.396;2023-08-06T04:48:49;14.82;;;13.38;;
57191;SDS011;43052;52.588;13.396;2023-08-06T04:51:17;14.88;;;13.30;;
57191;SDS011;43052;52.588;13.396;2023-08-06T04:53:44;14.57;;;13.18;;
57191;SDS011;43052;52.588;13.396;2023-08-06T04:56:13;13.63;;;12.32;;
57191;SDS011;43052;52.588;13.396;2023-08-06T04:58:38;13.20;;;12.00;;
57191;SDS011;43052;52.588;13.396;2023-08-06T05:01:06;14.05;;;12.60;;
57191;SDS011;43052;52.588;13.396;2023-08-06T05:03:39;13.93;;;12.55;;
57191;SDS011;43052;52.588;13.396;2023-08-06T05:06:10;14.13;;;12.82;;
57191;SDS011;43052;52.588;13.396;2023-08-06T05:08:47;14.20;;;12.70;;
57191;SDS011;43052;52.588;13.396;2023-08-06T05:11:18;13.27;;;11.98;;
57191;SDS011;43052;52.588;13.396;2023-08-06T05:13:49;14.32;;;12.93;;
57191;SDS011;43052;52.588;13.396;2023-08-06T05:16:14;13.77;;;12.45;;
57191;SDS011;43052;52.588;13.396;2023-08-06T05:18:44;13.25;;;11.95;;
57191;SDS011;43052;52.588;13.396;2023-08-06T05:21:15;13.20;;;11.90;;
57191;SDS011;43052;52.588;13.396;2023-08-06T05:23:49;13.48;;;12.10;;
57191;SDS011;43052;52.588;13.396;2023-08-06T05:26:14;12.95;;;11.65;;
57191;SDS011;43052;52.588;13.396;2023-08-06T05:28:43;12.70;;;11.40;;
57191;SDS011;43052;52.588;13.396;2023-08-06T05:31:17;13.15;;;11.63;;
57191;SDS011;43052;52.588;13.396;2023-08-06T05:33:48;12.18;;;11.05;;
57191;SDS011;43052;52.588;13.396;2023-08-06T05:36:14;12.45;;;11.30;;
57191;SDS011;43052;52.588;13.396;2023-08-06T05:38:45;12.18;;;10.98;;
57191;SDS011;43052;52.588;13.396;2023-08-06T05:41:10;11.65;;;10.65;;
57191;SDS011;43052;52.588;13.396;2023-08-06T05:43:36;11.13;;;10.07;;
57191;SDS011;43052;52.588;13.396;2023-08-06T05:46:04;12.82;;;11.70;;
57191;SDS011;43052;52.588;13.396;2023-08-06T05:48:38;11.98;;;10.88;;
57191;SDS011;43052;52.588;13.396;2023-08-06T05:51:19;11.77;;;10.68;;
57191;SDS011;43052;52.588;13.396;2023-08-06T05:53:48;11.98;;;10.75;;
57191;SDS011;43052;52.588;13.396;2023-08-06T05:56:20;12.00;;;10.68;;
57191;SDS011;43052;52.588;13.396;2023-08-06T05:58:45;11.52;;;10.32;;
57191;SDS011;43052;52.588;13.396;2023-08-06T06:01:12;10.93;;;9.93;;
57191;SDS011;43052;52.588;13.396;2023-08-06T06:03:37;11.10;;;10.00;;
57191;SDS011;43052;52.588;13.396;2023-08-06T06:06:03;11.10;;;10.02;;
57191;SDS011;43052;52.588;13.396;2023-08-06T06:08:28;11.48;;;10.30;;
57191;SDS011;43052;52.588;13.396;2023-08-06T06:10:53;11.23;;;10.23;;
57191;SDS011;43052;52.588;13.396;2023-08-06T06:13:19;10.68;;;9.68;;
57191;SDS011;43052;52.588;13.396;2023-08-06T06:15:45;10.77;;;9.77;;
57191;SDS011;43052;52.588;13.396;2023-08-06T06:18:11;11.25;;;10.02;;
57191;SDS011;43052;52.588;13.396;2023-08-06T06:20:37;11.15;;;10.05;;
57191;SDS011;43052;52.588;13.396;2023-08-06T06:23:02;11.38;;;10.30;;
57191;SDS011;43052;52.588;13.396;2023-08-06T06:25:27;11.82;;;10.73;;
57191;SDS011;43052;52.588;13.396;2023-08-06T06:27:53;11.20;;;10.15;;
57191;SDS011;43052;52.588;13.396;2023-08-06T06:30:18;10.90;;;9.90;;
57191;SDS011;43052;52.588;13.396;2023-08-06T06:32:43;12.65;;;11.45;;
57191;SDS011;43052;52.588;13.396;2023-08-06T06:35:12;11.85;;;10.70;;
57191;SDS011;43052;52.588;13.396;2023-08-06T06:37:37;12.55;;;11.18;;
57191;SDS011;43052;52.588;13.396;2023-08-06T06:40:02;11.70;;;10.70;;
57191;SDS011;43052;52.588;13.396;2023-08-06T06:42:28;11.80;;;10.70;;
57191;SDS011;43052;52.588;13.396;2023-08-06T06:44:57;12.85;;;11.70;;
57191;SDS011;43052;52.588;13.396;2023-08-06T06:47:22;13.57;;;12.38;;
57191;SDS011;43052;52.588;13.396;2023-08-06T06:49:47;12.27;;;11.07;;
57191;SDS011;43052;52.588;13.396;2023-08-06T06:52:13;12.23;;;11.13;;
57191;SDS011;43052;52.588;13.396;2023-08-06T06:54:39;12.85;;;11.55;;
57191;SDS011;43052;52.588;13.396;2023-08-06T06:57:07;13.75;;;12.35;;
57191;SDS011;43052;52.588;13.396;2023-08-06T06:59:32;12.60;;;11.50;;
57191;SDS011;43052;52.588;13.396;2023-08-06T07:02:00;11.77;;;10.68;;
57191;SDS011;43052;52.588;13.396;2023-08-06T07:04:26;13.07;;;11.68;;
57191;SDS011;43052;52.588;13.396;2023-08-06T07:06:51;13.52;;;12.23;;
57191;SDS011;43052;52.588;13.396;2023-08-06T07:09:19;12.45;;;11.35;;
57191;SDS011;43052;52.588;13.396;2023-08-06T07:11:50;12.82;;;11.63;;
57191;SDS011;43052;52.588;13.396;2023-08-06T07:14:25;12.25;;;11.15;;
57191;SDS011;43052;52.588;13.396;2023-08-06T07:16:50;12.00;;;10.45;;
57191;SDS011;43052;52.588;13.396;2023-08-06T07:19:16;11.65;;;10.65;;
57191;SDS011;43052;52.588;13.396;2023-08-06T07:21:41;12.02;;;10.68;;
57191;SDS011;43052;52.588;13.396;2023-08-06T07:24:07;11.40;;;10.40;;
57191;SDS011;43052;52.588;13.396;2023-08-06T07:26:32;10.20;;;9.30;;
57191;SDS011;43052;52.588;13.396;2023-08-06T07:29:00;10.82;;;9.82;;
57191;SDS011;43052;52.588;13.396;2023-08-06T07:31:26;10.75;;;9.75;;
57191;SDS011;43052;52.588;13.396;2023-08-06T07:33:51;10.15;;;9.15;;
57191;SDS011;43052;52.588;13.396;2023-08-06T07:36:20;10.57;;;9.50;;
57191;SDS011;43052;52.588;13.396;2023-08-06T07:38:48;9.45;;;8.65;;
57191;SDS011;43052;52.588;13.396;2023-08-06T07:41:23;10.55;;;9.55;;
57191;SDS011;43052;52.588;13.396;2023-08-06T07:43:48;9.70;;;8.80;;
57191;SDS011;43052;52.588;13.396;2023-08-06T07:46:16;10.07;;;9.18;;
57191;SDS011;43052;52.588;13.396;2023-08-06T07:48:44;10.10;;;8.95;;
57191;SDS011;43052;52.588;13.396;2023-08-06T07:51:12;10.35;;;9.35;;
57191;SDS011;43052;52.588;13.396;2023-08-06T07:53:38;13.93;;;12.63;;
57191;SDS011;43052;52.588;13.396;2023-08-06T07:56:03;10.45;;;9.55;;
57191;SDS011;43052;52.588;13.396;2023-08-06T07:58:31;10.93;;;9.93;;
57191;SDS011;43052;52.588;13.396;2023-08-06T08:00:59;11.27;;;10.10;;
57191;SDS011;43052;52.588;13.396;2023-08-06T08:03:25;10.32;;;9.43;;
57191;SDS011;43052;52.588;13.396;2023-08-06T08:05:54;10.50;;;9.50;;
57191;SDS011;43052;52.588;13.396;2023-08-06T08:08:31;11.32;;;10.15;;
57191;SDS011;43052;52.588;13.396;2023-08-06T08:10:57;12.27;;;11.07;;
57191;SDS011;43052;52.588;13.396;2023-08-06T08:13:32;11.77;;;10.68;;
57191;SDS011;43052;52.588;13.396;2023-08-06T08:15:59;11.50;;;10.50;;
57191;SDS011;43052;52.588;13.396;2023-08-06T08:18:27;12.05;;;11.05;;
57191;SDS011;43052;52.588;13.396;2023-08-06T08:21:02;12.07;;;10.98;;
57191;SDS011;43052;52.588;13.396;2023-08-06T08:23:27;11.88;;;10.88;;
57191;SDS011;43052;52.588;13.396;2023-08-06T08:25:52;11.60;;;10.50;;
57191;SDS011;43052;52.588;13.396;2023-08-06T08:28:25;11.52;;;10.43;;
57191;SDS011;43052;52.588;13.396;2023-08-06T08:30:53;12.45;;;11.35;;
57191;SDS011;43052;52.588;13.396;2023-08-06T08:33:18;12.77;;;11.48;;
57191;SDS011;43052;52.588;13.396;2023-08-06T08:35:45;12.93;;;11.73;;
57191;SDS011;43052;52.588;13.396;2023-08-06T08:38:10;12.18;;;11.07;;
57191;SDS011;43052;52.588;13.396;2023-08-06T08:40:41;12.52;;;11.43;;
57191;SDS011;43052;52.588;13.396;2023-08-06T08:43:14;11.35;;;10.35;;
57191;SDS011;43052;52.588;13.396;2023-08-06T08:45:40;12.07;;;10.98;;
57191;SDS011;43052;52.588;13.396;2023-08-06T08:48:17;11.68;;;10.60;;
57191;SDS011;43052;52.588;13.396;2023-08-06T08:50:52;11.85;;;10.75;;
57191;SDS011;43052;52.588;13.396;2023-08-06T08:53:21;12.80;;;11.70;;
57191;SDS011;43052;52.588;13.396;2023-08-06T08:55:47;13.88;;;12.60;;
57191;SDS011;43052;52.588;13.396;2023-08-06T08:58:16;12.05;;;10.95;;
57191;SDS011;43052;52.588;13.396;2023-08-06T09:00:48;12.98;;;11.68;;
57191;SDS011;43052;52.588;13.396;2023-08-06T09:03:26;13.03;;;11.93;;
57191;SDS011;43052;52.588;13.396;2023-08-06T09:05:54;13.07;;;11.88;;
57191;SDS011;43052;52.588;13.396;2023-08-06T09:08:27;12.63;;;11.52;;
57191;SDS011;43052;52.588;13.396;2023-08-06T09:10:59;13.57;;;12.20;;
57191;SDS011;43052;52.588;13.396;2023-08-06T09:13:49;13.57;;;12.32;;
57191;SDS011;43052;52.588;13.396;2023-08-06T09:16:32;14.43;;;13.07;;
57191;SDS011;43052;52.588;13.396;2023-08-06T09:19:36;13.35;;;12.05;;
57191;SDS011;43052;52.588;13.396;2023-08-06T09:22:16;13.40;;;12.10;;
57191;SDS011;43052;52.588;13.396;2023-08-06T09:45:20;12.38;;;11.25;;
57191;SDS011;43052;52.588;13.396;2023-08-06T09:58:41;6.40;;;5.80;;
57191;SDS011;43052;52.588;13.396;2023-08-06T10:01:28;5.25;;;4.75;;
57191;SDS011;43052;52.588;13.396;2023-08-06T10:04:21;7.10;;;6.40;;
57191;SDS011;43052;52.588;13.396;2023-08-06T10:07:16;11.88;;;10.73;;
57191;SDS011;43052;52.588;13.396;2023-08-06T10:10:06;7.28;;;6.63;;
57191;SDS011;43052;52.588;13.396;2023-08-06T10:15:39;6.00;;;5.40;;
57191;SDS011;43052;52.588;13.396;2023-08-06T10:18:15;5.70;;;5.10;;
57191;SDS011;43052;52.588;13.396;2023-08-06T10:21:14;6.85;;;6.03;;
57191;SDS011;43052;52.588;13.396;2023-08-06T10:52:50;8.63;;;7.82;;
57191;SDS011;43052;52.588;13.396;2023-08-06T10:59:49;8.45;;;7.75;;
57191;SDS011;43052;52.588;13.396;2023-08-06T11:33:06;8.70;;;7.80;;
57191;SDS011;43052;52.588;13.396;2023-08-06T12:31:43;9.90;;;8.90;;
57191;SDS011;43052;52.588;13.396;2023-08-06T12:35:11;9.57;;;8.73;;
57191;SDS011;43052;52.588;13.396;2023-08-06T12:37:44;10.18;;;9.18;;
57191;SDS011;43052;52.588;13.396;2023-08-06T12:49:43;9.32;;;8.43;;
57191;SDS011;43052;52.588;13.396;2023-08-06T13:00:11;9.38;;;8.38;;
57191;SDS011;43052;52.588;13.396;2023-08-06T13:06:24;11.02;;;8.73;;
57191;SDS011;43052;52.588;13.396;2023-08-06T13:16:26;10.90;;;8.40;;
57191;SDS011;43052;52.588;13.396;2023-08-06T13:19:44;9.13;;;8.23;;
57191;SDS011;43052;52.588;13.396;2023-08-06T13:22:24;8.35;;;7.53;;
57191;SDS011;43052;52.588;13.396;2023-08-06T13:24:52;8.50;;;7.70;;
57191;SDS011;43052;52.588;13.396;2023-08-06T13:27:20;10.20;;;8.00;;
57191;SDS011;43052;52.588;13.396;2023-08-06T13:29:54;8.73;;;7.80;;
57191;SDS011;43052;52.588;13.396;2023-08-06T13:32:25;9.43;;;7.80;;
57191;SDS011;43052;52.588;13.396;2023-08-06T13:34:51;9.40;;;8.13;;
57191;SDS011;43052;52.588;13.396;2023-08-06T13:37:25;9.45;;;8.45;;
57191;SDS011;43052;52.588;13.396;2023-08-06T13:39:52;8.02;;;7.22;;
57191;SDS011;43052;52.588;13.396;2023-08-06T13:42:41;7.82;;;7.03;;
57191;SDS011;43052;52.588;13.396;2023-08-06T13:45:18;8.57;;;6.72;;
57191;SDS011;43052;52.588;13.396;2023-08-06T13:54:29;7.70;;;6.38;;
57191;SDS011;43052;52.588;13.396;2023-08-06T14:00:13;7.30;;;5.85;;
57191;SDS011;43052;52.588;13.396;2023-08-06T14:02:48;7.25;;;5.57;;
57191;SDS011;43052;52.588;13.396;2023-08-06T14:05:25;7.47;;;6.10;;
57191;SDS011;43052;52.588;13.396;2023-08-06T14:07:54;7.30;;;5.60;;
57191;SDS011;43052;52.588;13.396;2023-08-06T14:10:45;6.03;;;5.40;;
57191;SDS011;43052;52.588;13.396;2023-08-06T14:16:47;6.93;;;5.90;;
57191;SDS011;43052;52.588;13.396;2023-08-06T14:22:33;6.35;;;4.93;;
57191;SDS011;43052;52.588;13.396;2023-08-06T14:25:02;6.03;;;5.07;;
57191;SDS011;43052;52.588;13.396;2023-08-06T14:30:49;6.68;;;5.35;;
57191;SDS011;43052;52.588;13.396;2023-08-06T14:33:21;6.45;;;5.45;;
57191;SDS011;43052;52.588;13.396;2023-08-06T14:35:59;6.30;;;5.03;;
57191;SDS011;43052;52.588;13.396;2023-08-06T14:38:40;5.45;;;4.30;;
57191;SDS011;43052;52.588;13.396;2023-08-06T14:41:08;5.95;;;4.80;;
57191;SDS011;43052;52.588;13.396;2023-08-06T14:44:16;6.88;;;4.72;;
57191;SDS011;43052;52.588;13.396;2023-08-06T14:46:41;6.20;;;4.70;;
57191;SDS011;43052;52.588;13.396;2023-08-06T14:49:50;5.50;;;4.47;;
57191;SDS011;43052;52.588;13.396;2023-08-06T14:52:17;5.70;;;5.10;;
57191;SDS011;43052;52.588;13.396;2023-08-06T14:57:51;7.40;;;5.22;;
57191;SDS011;43052;52.588;13.396;2023-08-06T15:00:38;6.15;;;4.47;;
57191;SDS011;43052;52.588;13.396;2023-08-06T15:03:28;6.30;;;4.80;;
57191;SDS011;43052;52.588;13.396;2023-08-06T15:06:17;5.28;;;4.30;;
57191;SDS011;43052;52.588;13.396;2023-08-06T15:09:17;5.50;;;4.28;;
57191;SDS011;43052;52.588;13.396;2023-08-06T15:11:53;5.82;;;4.80;;
57191;SDS011;43052;52.588;13.396;2023-08-06T15:14:49;7.20;;;5.27;;
57191;SDS011;43052;52.588;13.396;2023-08-06T15:17:36;5.50;;;4.50;;
57191;SDS011;43052;52.588;13.396;2023-08-06T15:20:32;5.75;;;4.57;;
57191;SDS011;43052;52.588;13.396;2023-08-06T15:23:49;6.78;;;5.05;;
57191;SDS011;43052;52.588;13.396;2023-08-06T15:26:51;6.88;;;5.03;;
57191;SDS011;43052;52.588;13.396;2023-08-06T15:29:43;6.80;;;4.80;;
57191;SDS011;43052;52.588;13.396;2023-08-06T15:32:47;5.90;;;4.63;;
57191;SDS011;43052;52.588;13.396;2023-08-06T15:35:36;5.90;;;4.63;;
57191;SDS011;43052;52.588;13.396;2023-08-06T17:42:25;6.20;;;4.80;;
57191;SDS011;43052;52.588;13.396;2023-08-06T17:48:40;7.30;;;4.55;;
57191;SDS011;43052;52.588;13.396;2023-08-06T17:51:06;8.75;;;5.20;;
57191;SDS011;43052;52.588;13.396;2023-08-06T17:59:32;5.85;;;4.10;;
57191;SDS011;43052;52.588;13.396;2023-08-06T18:02:36;6.85;;;4.55;;
57191;SDS011;43052;52.588;13.396;2023-08-06T18:05:12;7.40;;;4.97;;
57191;SDS011;43052;52.588;13.396;2023-08-06T18:11:40;7.10;;;4.80;;
57191;SDS011;43052;52.588;13.396;2023-08-06T18:14:24;6.13;;;4.75;;
57191;SDS011;43052;52.588;13.396;2023-08-06T18:20:06;6.97;;;4.55;;
57191;SDS011;43052;52.588;13.396;2023-08-06T18:22:34;8.07;;;4.10;;
57191;SDS011;43052;52.588;13.396;2023-08-06T18:28:10;6.72;;;5.03;;
57191;SDS011;43052;52.588;13.396;2023-08-06T18:30:39;6.15;;;4.85;;
57191;SDS011;43052;52.588;13.396;2023-08-06T18:33:05;6.15;;;4.57;;
57191;SDS011;43052;52.588;13.396;2023-08-06T18:38:25;7.35;;;4.60;;
57191;SDS011;43052;52.588;13.396;2023-08-06T18:40:58;6.93;;;5.07;;
57191;SDS011;43052;52.588;13.396;2023-08-06T18:43:26;7.40;;;4.90;;
57191;SDS011;43052;52.588;13.396;2023-08-06T18:45:52;7.35;;;5.40;;
57191;SDS011;43052;52.588;13.396;2023-08-06T18:48:18;7.30;;;5.05;;
57191;SDS011;43052;52.588;13.396;2023-08-06T18:50:43;6.35;;;4.80;;
57191;SDS011;43052;52.588;13.396;2023-08-06T18:53:08;7.10;;;5.90;;
57191;SDS011;43052;52.588;13.396;2023-08-06T18:55:34;7.90;;;5.60;;
57191;SDS011;43052;52.588;13.396;2023-08-06T18:58:16;8.05;;;6.00;;
57191;SDS011;43052;52.588;13.396;2023-08-06T19:00:42;8.48;;;6.15;;
57191;SDS011;43052;52.588;13.396;2023-08-06T19:03:11;8.13;;;5.75;;
57191;SDS011;43052;52.588;13.396;2023-08-06T19:05:57;8.15;;;5.95;;
57191;SDS011;43052;52.588;13.396;2023-08-06T19:08:29;8.07;;;6.00;;
57191;SDS011;43052;52.588;13.396;2023-08-06T19:11:03;7.38;;;6.07;;
57191;SDS011;43052;52.588;13.396;2023-08-06T19:13:30;7.50;;;6.13;;
57191;SDS011;43052;52.588;13.396;2023-08-06T19:15:56;8.25;;;5.78;;
57191;SDS011;43052;52.588;13.396;2023-08-06T19:18:29;8.50;;;6.10;;
57191;SDS011;43052;52.588;13.396;2023-08-06T19:20:55;7.78;;;6.10;;
57191;SDS011;43052;52.588;13.396;2023-08-06T19:23:24;8.18;;;6.15;;
57191;SDS011;43052;52.588;13.396;2023-08-06T19:25:52;9.70;;;5.93;;
57191;SDS011;43052;52.588;13.396;2023-08-06T19:28:21;8.95;;;6.65;;
57191;SDS011;43052;52.588;13.396;2023-08-06T19:30:50;9.13;;;6.55;;
57191;SDS011;43052;52.588;13.396;2023-08-06T19:33:15;9.70;;;6.30;;
57191;SDS011;43052;52.588;13.396;2023-08-06T19:35:59;7.65;;;5.90;;
57191;SDS011;43052;52.588;13.396;2023-08-06T19:38:27;8.23;;;6.25;;
57191;SDS011;43052;52.588;13.396;2023-08-06T19:43:38;7.40;;;5.57;;
57191;SDS011;43052;52.588;13.396;2023-08-06T19:46:03;9.27;;;6.40;;
57191;SDS011;43052;52.588;13.396;2023-08-06T19:48:29;8.18;;;6.22;;
57191;SDS011;43052;52.588;13.396;2023-08-06T19:50:57;8.45;;;6.38;;
57191;SDS011;43052;52.588;13.396;2023-08-06T19:53:29;7.75;;;6.15;;
57191;SDS011;43052;52.588;13.396;2023-08-06T19:56:00;7.18;;;6.07;;
57191;SDS011;43052;52.588;13.396;2023-08-06T19:58:27;7.38;;;5.60;;
57191;SDS011;43052;52.588;13.396;2023-08-06T20:00:57;10.45;;;6.00;;
57191;SDS011;43052;52.588;13.396;2023-08-06T20:03:26;7.82;;;6.38;;
57191;SDS011;43052;52.588;13.396;2023-08-06T20:05:51;9.40;;;6.43;;
57191;SDS011;43052;52.588;13.396;2023-08-06T20:08:24;9.02;;;6.22;;
57191;SDS011;43052;52.588;13.396;2023-08-06T20:10:49;6.93;;;5.53;;
57191;SDS011;43052;52.588;13.396;2023-08-06T20:13:17;7.90;;;5.68;;
57191;SDS011;43052;52.588;13.396;2023-08-06T20:15:42;8.40;;;5.30;;
57191;SDS011;43052;52.588;13.396;2023-08-06T20:18:13;6.65;;;4.80;;
57191;SDS011;43052;52.588;13.396;2023-08-06T20:20:39;7.68;;;5.13;;
57191;SDS011;43052;52.588;13.396;2023-08-06T20:23:05;7.68;;;5.20;;
57191;SDS011;43052;52.588;13.396;2023-08-06T20:25:33;9.77;;;5.25;;
57191;SDS011;43052;52.588;13.396;2023-08-06T20:27:59;6.63;;;5.22;;
57191;SDS011;43052;52.588;13.396;2023-08-06T20:30:28;7.85;;;5.53;;
57191;SDS011;43052;52.588;13.396;2023-08-06T20:32:54;6.53;;;5.30;;
57191;SDS011;43052;52.588;13.396;2023-08-06T20:35:22;7.10;;;5.15;;
57191;SDS011;43052;52.588;13.396;2023-08-06T20:37:47;7.50;;;5.13;;
57191;SDS011;43052;52.588;13.396;2023-08-06T20:40:12;5.40;;;4.55;;
57191;SDS011;43052;52.588;13.396;2023-08-06T20:42:38;5.53;;;4.03;;
57191;SDS011;43052;52.588;13.396;2023-08-06T20:45:06;5.63;;;4.00;;
57191;SDS011;43052;52.588;13.396;2023-08-06T20:47:32;6.88;;;4.05;;
57191;SDS011;43052;52.588;13.396;2023-08-06T20:50:00;6.85;;;4.22;;
57191;SDS011;43052;52.588;13.396;2023-08-06T20:52:25;5.07;;;3.55;;
57191;SDS011;43052;52.588;13.396;2023-08-06T20:54:51;6.55;;;4.38;;